sensor_id;sensor_type;location;lat;lon;timestamp;pressure;altitude;pressure_sealevel;temperature;humidity
47983;BME280;33751;50.816;-1.214;2022-12-18T00:02:14;102140.89;;;5.02;100.00
47983;BME280;33751;50.816;-1.214;2022-12-18T00:04:42;102137.14;;;5.25;100.00
47983;BME280;33751;50.816;-1.214;2022-12-18T00:07:08;102132.54;;;5.07;100.00
47983;BME280;33751;50.816;-1.214;2022-12-18T00:09:35;102131.88;;;5.27;100.00
47983;BME280;33751;50.816;-1.214;2022-12-18T00:12:02;102133.82;;;5.24;100.00
47983;BME280;33751;50.816;-1.214;2022-12-18T00:14:29;102129.40;;;5.39;100.00
47983;BME280;33751;50.816;-1.214;2022-12-18T00:16:56;102122.78;;;5.28;100.00
47983;BME280;33751;50.816;-1.214;2022-12-18T00:19:22;102111.64;;;5.24;100.00
47983;BME280;33751;50.816;-1.214;2022-12-18T00:21:49;102103.16;;;5.62;100.00
47983;BME280;33751;50.816;-1.214;2022-12-18T00:24:16;102106.69;;;5.54;100.00
47983;BME280;33751;50.816;-1.214;2022-12-18T00:26:43;102108.01;;;5.22;100.00
47983;BME280;33751;50.816;-1.214;2022-12-18T00:29:13;102098.47;;;5.29;100.00
47983;BME280;33751;50.816;-1.214;2022-12-18T00:31:41;102099.97;;;5.40;100.00
47983;BME280;33751;50.816;-1.214;2022-12-18T00:34:10;102091.80;;;5.20;100.00
47983;BME280;33751;50.816;-1.214;2022-12-18T00:36:37;102086.09;;;5.56;100.00
47983;BME280;33751;50.816;-1.214;2022-12-18T00:39:05;102084.57;;;5.47;100.00
47983;BME280;33751;50.816;-1.214;2022-12-18T00:41:32;102079.93;;;5.46;100.00
47983;BME280;33751;50.816;-1.214;2022-12-18T00:43:59;102076.15;;;5.65;100.00
47983;BME280;33751;50.816;-1.214;2022-12-18T00:46:26;102065.70;;;5.33;100.00
47983;BME280;33751;50.816;-1.214;2022-12-18T00:48:53;102063.63;;;5.48;100.00
47983;BME280;33751;50.816;-1.214;2022-12-18T00:51:20;102057.97;;;5.60;100.00
47983;BME280;33751;50.816;-1.214;2022-12-18T00:53:47;102050.84;;;5.55;100.00
47983;BME280;33751;50.816;-1.214;2022-12-18T00:56:14;102046.40;;;5.35;100.00
47983;BME280;33751;50.816;-1.214;2022-12-18T00:58:41;102044.54;;;5.30;100.00
47983;BME280;33751;50.816;-1.214;2022-12-18T01:01:08;102041.67;;;5.29;100.00
47983;BME280;33751;50.816;-1.214;2022-12-18T01:03:35;102043.40;;;5.59;100.00
47983;BME280;33751;50.816;-1.214;2022-12-18T01:06:06;102039.04;;;5.42;100.00
47983;BME280;33751;50.816;-1.214;2022-12-18T01:08:33;102032.70;;;5.46;100.00
47983;BME280;33751;50.816;-1.214;2022-12-18T01:11:00;102026.62;;;5.57;100.00
47983;BME280;33751;50.816;-1.214;2022-12-18T01:13:27;102022.85;;;5.31;100.00
47983;BME280;33751;50.816;-1.214;2022-12-18T01:15:55;102015.39;;;5.59;100.00
47983;BME280;33751;50.816;-1.214;2022-12-18T01:18:22;102011.12;;;5.45;100.00
47983;BME280;33751;50.816;-1.214;2022-12-18T01:20:49;102016.61;;;5.43;100.00
47983;BME280;33751;50.816;-1.214;2022-12-18T01:23:16;102018.47;;;5.75;100.00
47983;BME280;33751;50.816;-1.214;2022-12-18T01:25:43;102024.05;;;5.39;100.00
47983;BME280;33751;50.816;-1.214;2022-12-18T01:28:10;102024.96;;;5.44;100.00
47983;BME280;33751;50.816;-1.214;2022-12-18T01:30:37;102028.08;;;5.33;100.00
47983;BME280;33751;50.816;-1.214;2022-12-18T01:33:05;102030.63;;;5.99;100.00
47983;BME280;33751;50.816;-1.214;2022-12-18T01:35:31;102028.61;;;5.75;100.00
47983;BME280;33751;50.816;-1.214;2022-12-18T01:37:58;102024.84;;;5.84;100.00
47983;BME280;33751;50.816;-1.214;2022-12-18T01:40:26;102022.75;;;5.57;100.00
47983;BME280;33751;50.816;-1.214;2022-12-18T01:42:53;102025.48;;;5.77;100.00
47983;BME280;33751;50.816;-1.214;2022-12-18T01:45:24;102033.03;;;5.62;100.00
47983;BME280;33751;50.816;-1.214;2022-12-18T01:47:52;102033.49;;;5.81;100.00
47983;BME280;33751;50.816;-1.214;2022-12-18T01:50:23;102039.76;;;5.82;100.00
47983;BME280;33751;50.816;-1.214;2022-12-18T01:52:53;102042.21;;;5.80;100.00
47983;BME280;33751;50.816;-1.214;2022-12-18T01:55:23;102041.24;;;5.53;100.00
47983;BME280;33751;50.816;-1.214;2022-12-18T01:57:53;102039.01;;;5.61;100.00
47983;BME280;33751;50.816;-1.214;2022-12-18T02:00:22;102040.22;;;5.51;100.00
47983;BME280;33751;50.816;-1.214;2022-12-18T02:02:49;102042.14;;;5.57;100.00
47983;BME280;33751;50.816;-1.214;2022-12-18T02:05:18;102047.28;;;5.61;100.00
47983;BME280;33751;50.816;-1.214;2022-12-18T02:07:57;102051.54;;;5.54;100.00
47983;BME280;33751;50.816;-1.214;2022-12-18T02:10:28;102055.01;;;5.51;100.00
47983;BME280;33751;50.816;-1.214;2022-12-18T02:13:05;102056.26;;;5.84;100.00
47983;BME280;33751;50.816;-1.214;2022-12-18T02:15:38;102047.83;;;5.71;100.00
47983;BME280;33751;50.816;-1.214;2022-12-18T02:18:11;102047.12;;;5.90;100.00
47983;BME280;33751;50.816;-1.214;2022-12-18T02:20:44;102037.82;;;5.91;100.00
47983;BME280;33751;50.816;-1.214;2022-12-18T02:23:24;102032.39;;;5.57;100.00
47983;BME280;33751;50.816;-1.214;2022-12-18T02:26:07;102032.01;;;5.83;100.00
47983;BME280;33751;50.816;-1.214;2022-12-18T02:28:42;102027.25;;;5.71;100.00
47983;BME280;33751;50.816;-1.214;2022-12-18T02:31:14;102015.44;;;5.23;100.00
47983;BME280;33751;50.816;-1.214;2022-12-18T02:33:44;102011.22;;;5.54;100.00
47983;BME280;33751;50.816;-1.214;2022-12-18T02:36:12;102006.33;;;5.50;100.00
47983;BME280;33751;50.816;-1.214;2022-12-18T02:38:41;102009.78;;;5.94;100.00
47983;BME280;33751;50.816;-1.214;2022-12-18T02:41:08;102014.06;;;5.92;100.00
47983;BME280;33751;50.816;-1.214;2022-12-18T02:43:36;102009.27;;;5.61;100.00
47983;BME280;33751;50.816;-1.214;2022-12-18T02:46:27;101998.27;;;5.34;100.00
47983;BME280;33751;50.816;-1.214;2022-12-18T02:49:02;101988.57;;;6.11;100.00
47983;BME280;33751;50.816;-1.214;2022-12-18T02:51:40;101985.78;;;5.88;100.00
47983;BME280;33751;50.816;-1.214;2022-12-18T02:54:13;101976.77;;;6.13;100.00
47983;BME280;33751;50.816;-1.214;2022-12-18T02:56:47;101978.35;;;5.83;100.00
47983;BME280;33751;50.816;-1.214;2022-12-18T02:59:21;101972.12;;;5.86;100.00
47983;BME280;33751;50.816;-1.214;2022-12-18T03:01:55;101978.86;;;5.90;100.00
47983;BME280;33751;50.816;-1.214;2022-12-18T03:04:27;101981.55;;;6.07;100.00
47983;BME280;33751;50.816;-1.214;2022-12-18T03:06:58;101976.28;;;5.94;100.00
47983;BME280;33751;50.816;-1.214;2022-12-18T03:09:30;101970.45;;;5.93;100.00
47983;BME280;33751;50.816;-1.214;2022-12-18T03:12:03;101964.91;;;5.87;100.00
47983;BME280;33751;50.816;-1.214;2022-12-18T03:14:32;101956.59;;;6.35;100.00
47983;BME280;33751;50.816;-1.214;2022-12-18T03:17:04;101954.85;;;5.98;100.00
47983;BME280;33751;50.816;-1.214;2022-12-18T03:19:34;101956.61;;;5.90;100.00
47983;BME280;33751;50.816;-1.214;2022-12-18T03:22:04;101953.14;;;5.77;100.00
47983;BME280;33751;50.816;-1.214;2022-12-18T03:24:33;101956.59;;;5.93;100.00
47983;BME280;33751;50.816;-1.214;2022-12-18T03:27:03;101954.87;;;5.90;100.00
47983;BME280;33751;50.816;-1.214;2022-12-18T03:29:35;101951.87;;;6.18;100.00
47983;BME280;33751;50.816;-1.214;2022-12-18T03:32:05;101963.82;;;5.95;100.00
47983;BME280;33751;50.816;-1.214;2022-12-18T03:34:38;101963.11;;;6.12;100.00
47983;BME280;33751;50.816;-1.214;2022-12-18T03:37:06;101959.52;;;6.07;100.00
47983;BME280;33751;50.816;-1.214;2022-12-18T03:39:34;101960.63;;;5.95;100.00
47983;BME280;33751;50.816;-1.214;2022-12-18T03:42:05;101951.93;;;5.94;100.00
47983;BME280;33751;50.816;-1.214;2022-12-18T03:44:39;101950.87;;;5.51;100.00
47983;BME280;33751;50.816;-1.214;2022-12-18T03:47:14;101953.53;;;5.87;100.00
47983;BME280;33751;50.816;-1.214;2022-12-18T03:49:46;101954.06;;;5.95;100.00
47983;BME280;33751;50.816;-1.214;2022-12-18T03:52:20;101950.58;;;5.30;100.00
47983;BME280;33751;50.816;-1.214;2022-12-18T03:54:52;101953.86;;;6.08;100.00
47983;BME280;33751;50.816;-1.214;2022-12-18T03:57:23;101957.44;;;6.00;100.00
47983;BME280;33751;50.816;-1.214;2022-12-18T03:59:55;101952.78;;;6.07;100.00
47983;BME280;33751;50.816;-1.214;2022-12-18T04:02:24;101947.80;;;5.76;100.00
47983;BME280;33751;50.816;-1.214;2022-12-18T04:04:53;101941.69;;;6.17;100.00
47983;BME280;33751;50.816;-1.214;2022-12-18T04:07:22;101945.96;;;5.93;100.00
47983;BME280;33751;50.816;-1.214;2022-12-18T04:09:53;101953.69;;;6.29;100.00
47983;BME280;33751;50.816;-1.214;2022-12-18T04:12:21;101958.10;;;6.35;100.00
47983;BME280;33751;50.816;-1.214;2022-12-18T04:14:50;101948.05;;;5.98;100.00
47983;BME280;33751;50.816;-1.214;2022-12-18T04:17:16;101944.11;;;6.11;100.00
47983;BME280;33751;50.816;-1.214;2022-12-18T04:19:43;101940.18;;;6.09;100.00
47983;BME280;33751;50.816;-1.214;2022-12-18T04:22:10;101937.23;;;6.04;100.00
47983;BME280;33751;50.816;-1.214;2022-12-18T04:24:37;101935.59;;;5.98;100.00
47983;BME280;33751;50.816;-1.214;2022-12-18T04:27:04;101933.55;;;6.35;100.00
47983;BME280;33751;50.816;-1.214;2022-12-18T04:29:31;101922.55;;;6.16;100.00
47983;BME280;33751;50.816;-1.214;2022-12-18T04:31:58;101908.13;;;6.30;100.00
47983;BME280;33751;50.816;-1.214;2022-12-18T04:34:25;101903.29;;;6.09;100.00
47983;BME280;33751;50.816;-1.214;2022-12-18T04:36:52;101896.09;;;6.21;100.00
47983;BME280;33751;50.816;-1.214;2022-12-18T04:39:19;101883.54;;;6.07;100.00
47983;BME280;33751;50.816;-1.214;2022-12-18T04:41:46;101872.80;;;6.50;100.00
47983;BME280;33751;50.816;-1.214;2022-12-18T04:44:13;101870.46;;;5.65;100.00
47983;BME280;33751;50.816;-1.214;2022-12-18T04:46:40;101868.14;;;5.75;100.00
47983;BME280;33751;50.816;-1.214;2022-12-18T04:49:07;101868.38;;;6.18;100.00
47983;BME280;33751;50.816;-1.214;2022-12-18T04:51:33;101869.54;;;6.14;100.00
47983;BME280;33751;50.816;-1.214;2022-12-18T04:54:00;101862.01;;;5.86;100.00
47983;BME280;33751;50.816;-1.214;2022-12-18T04:56:27;101860.23;;;6.26;100.00
47983;BME280;33751;50.816;-1.214;2022-12-18T04:58:55;101863.38;;;6.05;100.00
47983;BME280;33751;50.816;-1.214;2022-12-18T05:01:22;101861.05;;;6.23;100.00
47983;BME280;33751;50.816;-1.214;2022-12-18T05:03:48;101851.26;;;6.40;100.00
47983;BME280;33751;50.816;-1.214;2022-12-18T05:06:15;101846.65;;;6.19;100.00
47983;BME280;33751;50.816;-1.214;2022-12-18T05:08:42;101840.31;;;6.28;100.00
47983;BME280;33751;50.816;-1.214;2022-12-18T05:11:11;101835.41;;;6.22;100.00
47983;BME280;33751;50.816;-1.214;2022-12-18T05:13:38;101828.42;;;6.12;100.00
47983;BME280;33751;50.816;-1.214;2022-12-18T05:16:06;101829.42;;;6.15;100.00
47983;BME280;33751;50.816;-1.214;2022-12-18T05:18:34;101831.44;;;6.05;100.00
47983;BME280;33751;50.816;-1.214;2022-12-18T05:21:02;101829.43;;;6.24;100.00
47983;BME280;33751;50.816;-1.214;2022-12-18T05:23:29;101830.85;;;6.18;100.00
47983;BME280;33751;50.816;-1.214;2022-12-18T05:25:58;101830.40;;;6.15;100.00
47983;BME280;33751;50.816;-1.214;2022-12-18T05:28:26;101825.86;;;6.08;100.00
47983;BME280;33751;50.816;-1.214;2022-12-18T05:30:55;101822.78;;;6.10;100.00
47983;BME280;33751;50.816;-1.214;2022-12-18T05:33:24;101814.85;;;6.08;100.00
47983;BME280;33751;50.816;-1.214;2022-12-18T05:35:52;101808.93;;;6.23;100.00
47983;BME280;33751;50.816;-1.214;2022-12-18T05:38:19;101816.04;;;6.13;100.00
47983;BME280;33751;50.816;-1.214;2022-12-18T05:40:47;101805.16;;;6.21;100.00
47983;BME280;33751;50.816;-1.214;2022-12-18T05:43:14;101794.34;;;6.01;100.00
47983;BME280;33751;50.816;-1.214;2022-12-18T05:45:42;101786.80;;;6.41;100.00
47983;BME280;33751;50.816;-1.214;2022-12-18T05:48:09;101778.63;;;6.52;100.00
47983;BME280;33751;50.816;-1.214;2022-12-18T05:50:36;101770.76;;;5.71;100.00
47983;BME280;33751;50.816;-1.214;2022-12-18T05:53:04;101754.34;;;6.33;100.00
47983;BME280;33751;50.816;-1.214;2022-12-18T05:55:33;101744.71;;;5.94;100.00
47983;BME280;33751;50.816;-1.214;2022-12-18T05:58:00;101739.34;;;6.12;100.00
47983;BME280;33751;50.816;-1.214;2022-12-18T06:00:27;101730.67;;;6.14;100.00
47983;BME280;33751;50.816;-1.214;2022-12-18T06:02:54;101731.07;;;6.13;100.00
47983;BME280;33751;50.816;-1.214;2022-12-18T06:05:21;101730.73;;;5.78;100.00
47983;BME280;33751;50.816;-1.214;2022-12-18T06:07:47;101731.53;;;5.93;100.00
47983;BME280;33751;50.816;-1.214;2022-12-18T06:10:14;101728.72;;;6.43;100.00
47983;BME280;33751;50.816;-1.214;2022-12-18T06:12:41;101733.20;;;6.38;100.00
47983;BME280;33751;50.816;-1.214;2022-12-18T06:15:08;101731.11;;;6.42;100.00
47983;BME280;33751;50.816;-1.214;2022-12-18T06:17:35;101732.25;;;6.30;100.00
47983;BME280;33751;50.816;-1.214;2022-12-18T06:20:03;101735.89;;;6.46;100.00
47983;BME280;33751;50.816;-1.214;2022-12-18T06:22:31;101733.60;;;6.39;100.00
47983;BME280;33751;50.816;-1.214;2022-12-18T06:24:58;101729.43;;;6.20;100.00
47983;BME280;33751;50.816;-1.214;2022-12-18T06:27:24;101734.17;;;6.42;100.00
47983;BME280;33751;50.816;-1.214;2022-12-18T06:29:52;101742.44;;;6.44;100.00
47983;BME280;33751;50.816;-1.214;2022-12-18T06:32:19;101733.33;;;6.12;100.00
47983;BME280;33751;50.816;-1.214;2022-12-18T06:34:46;101733.95;;;6.17;100.00
47983;BME280;33751;50.816;-1.214;2022-12-18T06:37:12;101728.30;;;6.07;100.00
47983;BME280;33751;50.816;-1.214;2022-12-18T06:39:39;101729.55;;;6.42;100.00
47983;BME280;33751;50.816;-1.214;2022-12-18T06:42:06;101730.96;;;6.60;100.00
47983;BME280;33751;50.816;-1.214;2022-12-18T06:44:33;101725.72;;;5.96;100.00
47983;BME280;33751;50.816;-1.214;2022-12-18T06:47:00;101723.64;;;5.72;100.00
47983;BME280;33751;50.816;-1.214;2022-12-18T06:49:27;101720.02;;;6.25;100.00
47983;BME280;33751;50.816;-1.214;2022-12-18T06:51:53;101729.03;;;6.15;100.00
47983;BME280;33751;50.816;-1.214;2022-12-18T06:54:21;101745.11;;;6.25;100.00
47983;BME280;33751;50.816;-1.214;2022-12-18T06:56:48;101754.10;;;6.37;100.00
47983;BME280;33751;50.816;-1.214;2022-12-18T06:59:15;101756.50;;;6.30;100.00
47983;BME280;33751;50.816;-1.214;2022-12-18T07:01:42;101761.69;;;6.66;100.00
47983;BME280;33751;50.816;-1.214;2022-12-18T07:04:09;101763.97;;;6.43;100.00
47983;BME280;33751;50.816;-1.214;2022-12-18T07:06:36;101750.99;;;6.44;100.00
47983;BME280;33751;50.816;-1.214;2022-12-18T07:09:03;101738.88;;;6.14;100.00
47983;BME280;33751;50.816;-1.214;2022-12-18T07:11:32;101731.18;;;5.99;100.00
47983;BME280;33751;50.816;-1.214;2022-12-18T07:13:59;101724.46;;;6.21;100.00
47983;BME280;33751;50.816;-1.214;2022-12-18T07:16:26;101727.71;;;6.16;100.00
47983;BME280;33751;50.816;-1.214;2022-12-18T07:18:54;101728.31;;;6.12;100.00
47983;BME280;33751;50.816;-1.214;2022-12-18T07:21:22;101724.47;;;5.91;100.00
47983;BME280;33751;50.816;-1.214;2022-12-18T07:23:49;101721.43;;;6.10;100.00
47983;BME280;33751;50.816;-1.214;2022-12-18T07:26:18;101718.30;;;6.06;100.00
47983;BME280;33751;50.816;-1.214;2022-12-18T07:28:46;101713.08;;;6.10;100.00
47983;BME280;33751;50.816;-1.214;2022-12-18T07:31:15;101703.15;;;5.46;100.00
47983;BME280;33751;50.816;-1.214;2022-12-18T07:33:42;101711.37;;;6.34;100.00
47983;BME280;33751;50.816;-1.214;2022-12-18T07:36:10;101714.13;;;6.27;100.00
47983;BME280;33751;50.816;-1.214;2022-12-18T07:38:37;101713.27;;;6.23;100.00
47983;BME280;33751;50.816;-1.214;2022-12-18T07:41:06;101716.37;;;6.49;100.00
47983;BME280;33751;50.816;-1.214;2022-12-18T07:43:34;101712.51;;;6.31;100.00
47983;BME280;33751;50.816;-1.214;2022-12-18T07:46:01;101708.13;;;6.18;100.00
47983;BME280;33751;50.816;-1.214;2022-12-18T07:48:28;101704.88;;;6.06;100.00
47983;BME280;33751;50.816;-1.214;2022-12-18T07:50:58;101703.66;;;6.60;100.00
47983;BME280;33751;50.816;-1.214;2022-12-18T07:53:25;101708.56;;;6.25;100.00
47983;BME280;33751;50.816;-1.214;2022-12-18T07:55:55;101711.08;;;6.15;100.00
47983;BME280;33751;50.816;-1.214;2022-12-18T07:58:22;101717.13;;;6.40;100.00
47983;BME280;33751;50.816;-1.214;2022-12-18T08:00:49;101714.84;;;6.19;100.00
47983;BME280;33751;50.816;-1.214;2022-12-18T08:03:16;101717.54;;;6.16;100.00
47983;BME280;33751;50.816;-1.214;2022-12-18T08:05:43;101715.02;;;6.51;100.00
47983;BME280;33751;50.816;-1.214;2022-12-18T08:08:11;101712.64;;;6.22;100.00
47983;BME280;33751;50.816;-1.214;2022-12-18T08:10:38;101711.79;;;6.07;100.00
47983;BME280;33751;50.816;-1.214;2022-12-18T08:13:05;101714.41;;;6.27;100.00
47983;BME280;33751;50.816;-1.214;2022-12-18T08:15:32;101703.57;;;6.18;100.00
47983;BME280;33751;50.816;-1.214;2022-12-18T08:17:59;101698.22;;;6.36;100.00
47983;BME280;33751;50.816;-1.214;2022-12-18T08:20:25;101698.82;;;6.36;100.00
47983;BME280;33751;50.816;-1.214;2022-12-18T08:22:52;101702.24;;;6.01;100.00
47983;BME280;33751;50.816;-1.214;2022-12-18T08:25:19;101709.49;;;6.27;100.00
47983;BME280;33751;50.816;-1.214;2022-12-18T08:27:46;101715.31;;;6.27;100.00
47983;BME280;33751;50.816;-1.214;2022-12-18T08:30:13;101715.19;;;6.61;100.00
47983;BME280;33751;50.816;-1.214;2022-12-18T08:32:40;101718.65;;;6.67;100.00
47983;BME280;33751;50.816;-1.214;2022-12-18T08:35:08;101717.63;;;6.22;100.00
47983;BME280;33751;50.816;-1.214;2022-12-18T08:37:35;101716.36;;;6.36;100.00
47983;BME280;33751;50.816;-1.214;2022-12-18T08:40:03;101720.45;;;6.35;100.00
47983;BME280;33751;50.816;-1.214;2022-12-18T08:42:29;101715.00;;;6.60;100.00
47983;BME280;33751;50.816;-1.214;2022-12-18T08:44:56;101716.37;;;6.36;100.00
47983;BME280;33751;50.816;-1.214;2022-12-18T08:47:24;101714.18;;;6.26;100.00
47983;BME280;33751;50.816;-1.214;2022-12-18T08:49:50;101712.50;;;5.98;100.00
47983;BME280;33751;50.816;-1.214;2022-12-18T08:52:17;101710.28;;;6.19;100.00
47983;BME280;33751;50.816;-1.214;2022-12-18T08:54:44;101712.80;;;6.51;100.00
47983;BME280;33751;50.816;-1.214;2022-12-18T08:57:11;101711.23;;;6.73;100.00
47983;BME280;33751;50.816;-1.214;2022-12-18T08:59:37;101713.14;;;6.80;100.00
47983;BME280;33751;50.816;-1.214;2022-12-18T09:02:04;101713.02;;;6.57;100.00
47983;BME280;33751;50.816;-1.214;2022-12-18T09:04:31;101712.44;;;6.43;100.00
47983;BME280;33751;50.816;-1.214;2022-12-18T09:06:57;101703.52;;;5.81;100.00
47983;BME280;33751;50.816;-1.214;2022-12-18T09:09:24;101705.57;;;6.55;100.00
47983;BME280;33751;50.816;-1.214;2022-12-18T09:11:51;101710.56;;;6.60;100.00
47983;BME280;33751;50.816;-1.214;2022-12-18T09:14:18;101704.78;;;6.45;100.00
47983;BME280;33751;50.816;-1.214;2022-12-18T09:16:45;101694.61;;;6.39;100.00
47983;BME280;33751;50.816;-1.214;2022-12-18T09:19:13;101687.18;;;6.57;100.00
47983;BME280;33751;50.816;-1.214;2022-12-18T09:21:39;101681.41;;;6.32;100.00
47983;BME280;33751;50.816;-1.214;2022-12-18T09:24:08;101676.82;;;6.67;100.00
47983;BME280;33751;50.816;-1.214;2022-12-18T09:26:38;101673.93;;;6.40;100.00
47983;BME280;33751;50.816;-1.214;2022-12-18T09:29:05;101671.08;;;6.17;100.00
47983;BME280;33751;50.816;-1.214;2022-12-18T09:31:33;101672.61;;;6.64;100.00
47983;BME280;33751;50.816;-1.214;2022-12-18T09:34:00;101664.12;;;6.46;100.00
47983;BME280;33751;50.816;-1.214;2022-12-18T09:36:27;101663.99;;;5.99;100.00
47983;BME280;33751;50.816;-1.214;2022-12-18T09:38:54;101665.14;;;6.23;100.00
47983;BME280;33751;50.816;-1.214;2022-12-18T09:41:34;101664.12;;;5.97;100.00
47983;BME280;33751;50.816;-1.214;2022-12-18T09:44:13;101660.64;;;6.55;100.00
47983;BME280;33751;50.816;-1.214;2022-12-18T09:46:46;101644.60;;;6.31;100.00
47983;BME280;33751;50.816;-1.214;2022-12-18T09:49:17;101645.47;;;5.67;100.00
47983;BME280;33751;50.816;-1.214;2022-12-18T09:51:49;101643.78;;;6.32;100.00
47983;BME280;33751;50.816;-1.214;2022-12-18T09:54:21;101647.27;;;6.23;100.00
47983;BME280;33751;50.816;-1.214;2022-12-18T09:56:48;101642.65;;;6.20;100.00
47983;BME280;33751;50.816;-1.214;2022-12-18T09:59:22;101646.86;;;6.64;100.00
47983;BME280;33751;50.816;-1.214;2022-12-18T10:01:51;101647.95;;;6.57;100.00
47983;BME280;33751;50.816;-1.214;2022-12-18T10:04:18;101642.51;;;6.51;100.00
47983;BME280;33751;50.816;-1.214;2022-12-18T10:06:52;101642.89;;;6.51;100.00
47983;BME280;33751;50.816;-1.214;2022-12-18T10:09:28;101639.82;;;6.70;100.00
47983;BME280;33751;50.816;-1.214;2022-12-18T10:12:07;101638.08;;;6.59;100.00
47983;BME280;33751;50.816;-1.214;2022-12-18T10:14:41;101644.12;;;6.76;100.00
47983;BME280;33751;50.816;-1.214;2022-12-18T10:17:19;101641.51;;;6.35;100.00
47983;BME280;33751;50.816;-1.214;2022-12-18T10:19:54;101630.53;;;6.91;100.00
47983;BME280;33751;50.816;-1.214;2022-12-18T10:22:34;101628.40;;;6.50;100.00
47983;BME280;33751;50.816;-1.214;2022-12-18T10:25:18;101623.07;;;6.75;100.00
47983;BME280;33751;50.816;-1.214;2022-12-18T10:27:47;101616.32;;;6.95;100.00
47983;BME280;33751;50.816;-1.214;2022-12-18T10:30:20;101614.30;;;6.91;100.00
47983;BME280;33751;50.816;-1.214;2022-12-18T10:32:47;101616.71;;;6.93;100.00
47983;BME280;33751;50.816;-1.214;2022-12-18T10:35:18;101613.22;;;6.75;100.00
47983;BME280;33751;50.816;-1.214;2022-12-18T10:38:04;101613.17;;;6.79;100.00
47983;BME280;33751;50.816;-1.214;2022-12-18T10:40:31;101610.59;;;6.92;100.00
47983;BME280;33751;50.816;-1.214;2022-12-18T10:43:11;101610.19;;;7.16;100.00
47983;BME280;33751;50.816;-1.214;2022-12-18T10:45:38;101605.25;;;6.69;100.00
47983;BME280;33751;50.816;-1.214;2022-12-18T10:48:18;101601.13;;;6.95;100.00
47983;BME280;33751;50.816;-1.214;2022-12-18T10:50:49;101595.73;;;7.07;100.00
47983;BME280;33751;50.816;-1.214;2022-12-18T10:53:20;101586.18;;;6.84;100.00
47983;BME280;33751;50.816;-1.214;2022-12-18T10:55:49;101578.78;;;7.23;100.00
47983;BME280;33751;50.816;-1.214;2022-12-18T10:58:23;101571.38;;;7.30;100.00
47983;BME280;33751;50.816;-1.214;2022-12-18T11:01:09;101573.26;;;7.24;100.00
47983;BME280;33751;50.816;-1.214;2022-12-18T11:03:38;101568.95;;;7.61;100.00
47983;BME280;33751;50.816;-1.214;2022-12-18T11:06:08;101565.78;;;7.64;100.00
47983;BME280;33751;50.816;-1.214;2022-12-18T11:08:36;101556.10;;;7.52;100.00
47983;BME280;33751;50.816;-1.214;2022-12-18T11:11:07;101545.20;;;7.46;100.00
47983;BME280;33751;50.816;-1.214;2022-12-18T11:13:51;101535.83;;;7.71;100.00
47983;BME280;33751;50.816;-1.214;2022-12-18T11:16:23;101533.01;;;7.21;100.00
47983;BME280;33751;50.816;-1.214;2022-12-18T11:18:50;101522.96;;;7.46;100.00
47983;BME280;33751;50.816;-1.214;2022-12-18T11:21:17;101521.17;;;7.49;100.00
47983;BME280;33751;50.816;-1.214;2022-12-18T11:23:47;101516.60;;;7.81;100.00
47983;BME280;33751;50.816;-1.214;2022-12-18T11:26:16;101506.27;;;7.72;100.00
47983;BME280;33751;50.816;-1.214;2022-12-18T11:28:45;101505.40;;;7.77;100.00
47983;BME280;33751;50.816;-1.214;2022-12-18T11:31:22;101501.20;;;7.52;100.00
47983;BME280;33751;50.816;-1.214;2022-12-18T11:34:02;101496.66;;;8.01;100.00
47983;BME280;33751;50.816;-1.214;2022-12-18T11:36:36;101485.79;;;7.64;100.00
47983;BME280;33751;50.816;-1.214;2022-12-18T11:39:12;101480.84;;;8.06;100.00
47983;BME280;33751;50.816;-1.214;2022-12-18T11:41:48;101473.52;;;7.95;100.00
47983;BME280;33751;50.816;-1.214;2022-12-18T11:44:23;101474.11;;;7.80;100.00
47983;BME280;33751;50.816;-1.214;2022-12-18T11:46:56;101470.90;;;8.30;100.00
47983;BME280;33751;50.816;-1.214;2022-12-18T11:49:29;101463.28;;;8.18;100.00
47983;BME280;33751;50.816;-1.214;2022-12-18T11:52:04;101463.66;;;7.84;100.00
47983;BME280;33751;50.816;-1.214;2022-12-18T11:54:36;101454.56;;;8.10;100.00
47983;BME280;33751;50.816;-1.214;2022-12-18T11:57:09;101450.32;;;8.12;100.00
47983;BME280;33751;50.816;-1.214;2022-12-18T11:59:50;101447.02;;;8.38;100.00
47983;BME280;33751;50.816;-1.214;2022-12-18T12:02:33;101438.23;;;8.26;100.00
47983;BME280;33751;50.816;-1.214;2022-12-18T12:05:18;101432.12;;;8.40;100.00
47983;BME280;33751;50.816;-1.214;2022-12-18T12:07:53;101426.98;;;8.48;100.00
47983;BME280;33751;50.816;-1.214;2022-12-18T12:10:33;101421.47;;;8.21;100.00
47983;BME280;33751;50.816;-1.214;2022-12-18T12:13:17;101408.40;;;8.35;100.00
47983;BME280;33751;50.816;-1.214;2022-12-18T12:15:55;101401.49;;;8.52;100.00
47983;BME280;33751;50.816;-1.214;2022-12-18T12:18:34;101391.76;;;8.44;100.00
47983;BME280;33751;50.816;-1.214;2022-12-18T12:21:11;101380.19;;;8.76;100.00
47983;BME280;33751;50.816;-1.214;2022-12-18T12:23:44;101373.10;;;8.66;100.00
47983;BME280;33751;50.816;-1.214;2022-12-18T12:26:18;101367.19;;;8.45;100.00
47983;BME280;33751;50.816;-1.214;2022-12-18T12:28:59;101363.78;;;8.82;100.00
47983;BME280;33751;50.816;-1.214;2022-12-18T12:31:40;101360.85;;;8.57;100.00
47983;BME280;33751;50.816;-1.214;2022-12-18T12:34:17;101359.35;;;8.31;100.00
47983;BME280;33751;50.816;-1.214;2022-12-18T12:36:55;101354.56;;;8.46;100.00
47983;BME280;33751;50.816;-1.214;2022-12-18T12:39:28;101355.22;;;8.51;100.00
47983;BME280;33751;50.816;-1.214;2022-12-18T12:41:57;101340.51;;;8.54;100.00
47983;BME280;33751;50.816;-1.214;2022-12-18T12:44:27;101346.15;;;8.56;100.00
47983;BME280;33751;50.816;-1.214;2022-12-18T12:47:00;101352.02;;;8.67;100.00
47983;BME280;33751;50.816;-1.214;2022-12-18T12:49:31;101346.79;;;8.64;100.00
47983;BME280;33751;50.816;-1.214;2022-12-18T12:52:03;101342.29;;;8.69;100.00
47983;BME280;33751;50.816;-1.214;2022-12-18T12:54:32;101339.14;;;8.67;100.00